Data for 09/22/2015

Time Sea-Level Adjusted Pressure Absolute Pressure Temperature Relative Humidity Dew Point   
(mb) (inHg) (mb) (inHg) (C) (F) (%) (C) (F)
00:05 1018 30.06 847 25.01 12.9 55.2 59 5 41.1
00:10 1018 30.06 847 25.01 12.9 55.1 59 5 41
00:15 1018 30.06 847 25.01 12.8 55 59 5.1 41.2
00:20 1018 30.06 847 25.01 12.7 54.8 60 5.2 41.3
00:25 1018 30.06 847 25.01 12.6 54.6 60 5.1 41.1
00:30 1018 30.06 847 25.01 12.5 54.5 61 5.2 41.3
00:35 1018 30.06 847 25.01 12.4 54.3 61 5.2 41.4
00:40 1018 30.06 847 25.01 12.3 54.2 62 5.2 41.4
00:45 1018 30.06 847 25.01 12.2 54 62 5.3 41.5
00:50 1018 30.06 847 25.01 12.1 53.7 63 5.3 41.6
00:55 1018 30.06 847 25.01 11.9 53.4 64 5.3 41.5
01:00 1018 30.06 847 25.01 11.8 53.2 64 5.4 41.7
01:05 1018 30.06 847 25.01 11.6 52.9 65 5.4 41.7
01:10 1018 30.06 847 25.01 11.5 52.8 65 5.3 41.6
01:15 1018 30.06 847 25.01 11.5 52.6 66 5.4 41.6
01:20 1018 30.06 847 25.01 11.4 52.5 66 5.3 41.6
01:25 1018 30.06 847 25.01 11.2 52.2 66 5.3 41.5
01:30 1018 30.06 848 25.04 11.2 52.1 66 5.2 41.4
01:35 1018 30.06 848 25.04 11.1 52 67 5.2 41.3
01:40 1018 30.06 847 25.01 11 51.9 67 5.2 41.3
01:45 1018 30.06 847 25.01 11 51.8 67 5.1 41.2
01:50 1018 30.06 847 25.01 10.9 51.7 67 5.1 41.2
01:55 1018 30.06 847 25.01 10.9 51.5 67 5.1 41.2
02:00 1018 30.06 847 25.01 10.8 51.4 67 5.1 41.1
02:05 1018 30.06 847 25.01 10.7 51.3 68 5.1 41.1
02:10 1018 30.06 847 25.01 10.6 51.1 68 5.1 41.1
02:15 1018 30.06 847 25.01 10.5 51 69 5 41
02:20 1018 30.06 847 25.01 10.5 50.9 68 4.9 40.9
02:25 1018 30.06 847 25.01 10.5 50.8 69 5 40.9
02:30 1018 30.06 847 25.01 10.5 50.9 68 4.9 40.9
02:35 1018 30.06 847 25.01 10.4 50.8 69 4.9 40.9
02:40 1018 30.06 847 25.01 10.3 50.6 69 4.9 40.9
02:45 1018 30.06 847 25.01 10.3 50.5 69 4.9 40.8
02:50 1018 30.06 847 25.01 10.2 50.4 69 4.8 40.7
02:55 1018 30.06 847 25.01 10.2 50.3 69 4.9 40.8
03:00 1018 30.06 847 25.01 10.2 50.3 69 4.8 40.7
03:05 1018 30.06 847 25.01 10.1 50.2 69 4.8 40.6
03:10 1018 30.06 847 25.01 10.1 50.2 70 4.8 40.7
03:15 1018 30.06 847 25.01 10.1 50.1 70 4.8 40.7
03:20 1018 30.06 847 25.01 10 50 70 4.8 40.6
03:25 1018 30.06 847 25.01 9.9 49.8 70 4.8 40.6
03:30 1018 30.06 847 25.01 9.9 49.7 70 4.7 40.5
03:35 1018 30.06 847 25.01 9.8 49.6 70 4.6 40.3
03:40 1018 30.06 847 25.01 9.8 49.6 70 4.7 40.5
03:45 1018 30.06 847 25.01 9.7 49.5 71 4.6 40.4
03:50 1018 30.06 848 25.04 9.7 49.5 71 4.7 40.4
03:55 1018 30.06 848 25.04 9.7 49.4 71 4.6 40.3
04:00 1018 30.06 848 25.04 9.6 49.3 71 4.6 40.3
04:05 1018 30.06 848 25.04 9.5 49.1 71 4.6 40.3
04:10 1018 30.06 848 25.04 9.5 49 71 4.6 40.2
04:15 1018 30.06 848 25.04 9.5 49 71 4.5 40.2
04:20 1019 30.09 848 25.04 9.5 49 71 4.5 40.1
04:25 1019 30.09 848 25.04 9.4 48.9 72 4.5 40.2
04:30 1019 30.09 848 25.04 9.3 48.7 72 4.5 40.1
04:35 1019 30.09 848 25.04 9.3 48.7 71 4.4 39.9
04:40 1019 30.09 848 25.04 9.3 48.8 71 4.4 40
04:45 1019 30.09 848 25.04 9.3 48.7 71 4.4 39.9
04:50 1019 30.09 848 25.04 9.3 48.7 72 4.4 40
04:55 1019 30.09 848 25.04 9.2 48.5 72 4.4 40
05:00 1019 30.09 848 25.04 9.1 48.3 72 4.4 39.9
05:05 1019 30.09 848 25.04 9 48.2 73 4.4 39.8
05:10 1019 30.09 848 25.04 9 48.2 72 4.3 39.8
05:15 1019 30.09 848 25.04 9 48.1 72 4.3 39.7
05:20 1019 30.09 848 25.04 8.9 48.1 72 4.2 39.6
05:25 1019 30.09 848 25.04 8.9 48 72 4.2 39.6
05:30 1019 30.09 848 25.04 8.9 48 72 4.2 39.6
05:35 1019 30.09 848 25.04 8.8 47.9 73 4.2 39.6
05:40 1019 30.09 848 25.04 8.8 47.8 73 4.1 39.5
05:45 1019 30.09 848 25.04 8.7 47.7 73 4.2 39.5
05:50 1019 30.09 848 25.04 8.6 47.5 73 4.1 39.4
05:55 1019 30.09 848 25.04 8.6 47.5 73 4 39.3
06:00 1019 30.09 848 25.04 8.7 47.7 72 4 39.3
06:05 1019 30.09 848 25.04 8.7 47.7 72 4 39.2
06:10 1019 30.09 848 25.04 8.6 47.6 72 4 39.2
06:15 1019 30.09 848 25.04 8.6 47.4 73 4 39.2
06:20 1019 30.09 848 25.04 8.5 47.3 73 3.9 39.1
06:25 1019 30.09 848 25.04 8.5 47.3 73 4 39.2
06:30 1019 30.09 848 25.04 8.5 47.2 73 3.9 39.1
06:35 1019 30.09 848 25.04 8.6 47.4 73 4 39.1
06:40 1019 30.09 848 25.04 8.7 47.6 72 4 39.2
06:45 1019 30.09 848 25.04 8.7 47.7 72 4 39.2
06:50 1019 30.09 848 25.04 8.9 48.1 71 4.1 39.3
06:55 1019 30.09 848 25.04 9 48.2 71 4.1 39.3
07:00 1019 30.09 848 25.04 9 48.3 71 4.1 39.3
07:05 1019 30.09 848 25.04 9.1 48.5 70 4 39.3
07:10 1019 30.09 848 25.04 9.3 48.7 70 4.1 39.4
07:15 1019 30.09 848 25.04 9.4 48.8 70 4.2 39.5
07:20 1019 30.09 848 25.04 9.4 49 69 4.1 39.5
07:25 1019 30.09 848 25.04 9.5 49.2 69 4.2 39.5
07:30 1019 30.09 848 25.04 9.7 49.5 68 4.2 39.5
07:35 1019 30.09 848 25.04 9.8 49.7 67 4.1 39.3
07:40 1019 30.09 848 25.04 10 50 67 4.2 39.5
07:45 1019 30.09 848 25.04 10.1 50.2 66 4.1 39.4
07:50 1019 30.09 848 25.04 10.3 50.5 66 4.2 39.6
07:55 1019 30.09 848 25.04 10.4 50.7 65 4.2 39.6
08:00 1019 30.09 848 25.04 10.6 51.1 65 4.2 39.6
08:05 1019 30.09 848 25.04 10.7 51.3 64 4.3 39.8
08:10 1019 30.09 848 25.04 10.8 51.5 64 4.3 39.7
08:15 1019 30.09 848 25.04 11 51.9 63 4.3 39.7
08:20 1019 30.09 848 25.04 11.1 52 63 4.4 40
08:25 1019 30.09 848 25.04 11.2 52.2 63 4.4 40
08:30 1019 30.09 848 25.04 11.4 52.6 61 4.3 39.8
08:35 1019 30.09 848 25.04 11.6 52.9 61 4.4 40
08:40 1019 30.09 848 25.04 11.8 53.2 61 4.4 40
08:45 1019 30.09 848 25.04 12 53.5 60 4.5 40.2
08:50 1019 30.09 848 25.04 12 53.6 60 4.5 40.1
08:55 1019 30.09 848 25.04 12.2 53.9 59 4.4 39.9
09:00 1019 30.09 848 25.04 12.5 54.5 58 4.6 40.3
09:05 1019 30.09 848 25.04 12.8 55 57 4.6 40.2
09:10 1019 30.09 848 25.04 13 55.5 57 4.7 40.4
09:15 1019 30.09 848 25.04 13.3 55.9 56 4.8 40.6
09:20 1019 30.09 848 25.04 13.5 56.2 56 4.8 40.6
09:25 1019 30.09 848 25.04 13.5 56.2 56 4.8 40.7
09:30 1019 30.09 848 25.04 13.7 56.6 54 4.7 40.5
09:35 1019 30.09 848 25.04 13.7 56.7 55 4.8 40.7
09:40 1019 30.09 848 25.04 14.1 57.3 53 4.6 40.3
09:45 1019 30.09 848 25.04 14.1 57.3 53 4.6 40.3
09:50 1019 30.09 848 25.04 14.3 57.7 52 4.5 40.2
09:55 1019 30.09 848 25.04 14.6 58.3 51 4.7 40.5
10:00 1018 30.06 848 25.04 14.6 58.3 51 4.6 40.2
10:05 1018 30.06 848 25.04 14.8 58.6 50 4.6 40.3
10:10 1018 30.06 848 25.04 15 59 50 4.6 40.3
10:15 1018 30.06 848 25.04 15.3 59.6 49 4.9 40.8
10:20 1018 30.06 848 25.04 15.6 60.1 49 5 41.1
10:25 1018 30.06 847 25.01 15.9 60.6 48 4.9 40.9
10:30 1018 30.06 847 25.01 16 60.9 47 4.7 40.5
10:35 1018 30.06 847 25.01 16.3 61.4 46 4.9 40.8
10:40 1018 30.06 847 25.01 16.8 62.2 45 5 41.1
10:45 1018 30.06 847 25.01 17 62.5 46 5.5 41.8
10:50 1018 30.06 847 25.01 17.9 64.2 45 5.8 42.5
10:55 1018 30.06 847 25.01 18 64.4 45 6 42.8
11:00 1018 30.06 847 25.01 17.8 64 45 5.9 42.6
11:05 1018 30.06 847 25.01 18 64.5 42 5 41.1
11:10 1018 30.06 847 25.01 18.4 65.2 42 5.6 42
11:15 1018 30.06 847 25.01 18.5 65.3 44 6.1 43
11:20 1018 30.06 847 25.01 18.3 65 44 5.9 42.6
11:25 1018 30.06 847 25.01 18.6 65.4 43 5.8 42.4
11:30 1018 30.06 847 25.01 18.2 64.8 44 5.9 42.6
11:35 1017 30.03 847 25.01 18.7 65.7 43 6.1 43.1
11:40 1017 30.03 847 25.01 19.2 66.6 40 5.5 41.8
11:45 1017 30.03 847 25.01 19.3 66.8 42 6.2 43.2
11:50 1017 30.03 846 24.98 19.2 66.5 42 6.2 43.1
11:55 1017 30.03 846 24.98 19.2 66.5 41 5.8 42.4
12:00 1017 30.03 846 24.98 19.6 67.3 41 6.1 42.9
12:05 1017 30.03 846 24.98 20.1 68.2 39 6.1 42.9
12:10 1017 30.03 846 24.98 19.7 67.5 41 6.4 43.5
12:15 1017 30.03 846 24.98 20.1 68.1 38 5.6 42.1
12:20 1017 30.03 846 24.98 21.1 70 38 6.5 43.7
12:25 1017 30.03 846 24.98 20.7 69.2 37 5.8 42.4
12:30 1017 30.03 846 24.98 21.2 70.1 39 6.9 44.4
12:35 1017 30.03 846 24.98 20.9 69.6 36 5.5 42
12:40 1017 30.03 846 24.98 22.5 72.5 33 5.7 42.2
12:45 1017 30.03 846 24.98 23.1 73.6 33 6 42.9
12:50 1017 30.03 846 24.98 22.9 73.3 34 6.3 43.3
12:55 1017 30.03 846 24.98 22.3 72.2 37 7.1 44.7
13:00 1016 30 846 24.98 22.6 72.7 35 6.4 43.6
13:05 1016 30 846 24.98 22.9 73.3 33 6.1 43
13:10 1016 30 845 24.95 22.7 72.9 35 6.8 44.3
13:15 1016 30 845 24.95 22.6 72.7 36 6.9 44.5
13:20 1016 30 845 24.95 22.1 71.8 36 6.5 43.7
13:25 1016 30 845 24.95 22.4 72.3 35 6.3 43.3
13:30 1016 30 845 24.95 22.4 72.2 34 5.7 42.3
13:35 1016 30 845 24.95 22.5 72.6 35 6.5 43.7
13:40 1016 30 845 24.95 23 73.3 33 6.1 43
13:45 1016 30 845 24.95 23.3 73.9 32 5.8 42.5
13:50 1016 30 845 24.95 23.6 74.5 32 6 42.8
13:55 1016 30 845 24.95 23.3 74 32 5.8 42.5
14:00 1016 30 845 24.95 23 73.3 33 6 42.7
14:05 1016 30 845 24.95 23 73.5 33 6.3 43.4
14:10 1016 30 845 24.95 23.6 74.4 31 5.7 42.3
14:15 1016 30 845 24.95 24.4 75.9 30 6.2 43.1
14:20 1016 30 845 24.95 24.5 76 30 5.8 42.4
14:25 1016 30 845 24.95 24.9 76.8 29 5.7 42.2
14:30 1016 30 845 24.95 24.1 75.4 28 4.9 40.9
14:35 1016 30 845 24.95 24.2 75.6 29 5.3 41.5
14:40 1016 30 845 24.95 24.5 76.1 26 3.7 38.7
14:45 1016 30 845 24.95 24.5 76 26 3.8 38.8
14:50 1015 29.97 845 24.95 25.5 77.9 26 4.9 40.9
14:55 1015 29.97 845 24.95 24.7 76.5 25 3.8 38.8
15:00 1015 29.97 845 24.95 24.3 75.7 26 3.8 38.9
15:05 1015 29.97 845 24.95 24.9 76.9 25 3.8 38.8
15:10 1015 29.97 844 24.92 25.2 77.3 23 3 37.4
15:15 1015 29.97 844 24.92 24.7 76.5 25 3.7 38.7
15:20 1015 29.97 844 24.92 25.5 77.9 23 3 37.4
15:25 1015 29.97 844 24.92 25.6 78.1 24 3.6 38.5
15:30 1015 29.97 844 24.92 25.3 77.5 23 3 37.4
15:35 1015 29.97 844 24.92 25.2 77.4 23 3 37.4
15:40 1015 29.97 844 24.92 25.7 78.3 22 2.6 36.7
15:45 1015 29.97 844 24.92 25.8 78.4 22 2.7 36.9
15:50 1015 29.97 844 24.92 25.6 78 24 3.5 38.4
15:55 1015 29.97 844 24.92 25.2 77.3 21 1.7 35.1
16:00 1015 29.97 844 24.92 25.1 77.1 22 2.3 36.2
16:05 1015 29.97 844 24.92 25.4 77.7 23 2.8 37
16:10 1015 29.97 844 24.92 25.3 77.6 21 1.6 34.9
16:15 1015 29.97 844 24.92 25.3 77.6 20 1.2 34.2
16:20 1015 29.97 844 24.92 25.6 78 20 1.4 34.5
16:25 1015 29.97 844 24.92 25.3 77.6 23 3.3 37.9
16:30 1015 29.97 844 24.92 25 77 25 3.9 39
16:35 1015 29.97 844 24.92 24.8 76.6 25 3.7 38.6
16:40 1015 29.97 844 24.92 24.5 76 26 4.2 39.5
16:45 1015 29.97 844 24.92 24.1 75.4 27 4.3 39.7
16:50 1015 29.97 844 24.92 23.9 75 28 4.3 39.7
16:55 1015 29.97 844 24.92 23.3 73.9 28 4.2 39.6
17:00 1015 29.97 844 24.92 22.9 73.3 29 4 39.2
17:05 1015 29.97 844 24.92 22.6 72.7 29 4.1 39.4
17:10 1015 29.97 844 24.92 22.3 72.1 31 4.5 40.1
17:15 1015 29.97 844 24.92 22.2 71.9 32 4.9 40.7
17:20 1015 29.97 844 24.92 22.1 71.8 32 4.9 40.9
17:25 1015 29.97 844 24.92 21.8 71.2 33 4.8 40.7
17:30 1015 29.97 844 24.92 21.3 70.4 34 4.9 40.9
17:35 1015 29.97 844 24.92 21.1 69.9 35 5.1 41.2
17:40 1015 29.97 844 24.92 20.8 69.4 35 4.9 40.8
17:45 1015 29.97 844 24.92 20.6 69 36 5.1 41.1
17:50 1015 29.97 844 24.92 20.4 68.7 36 5 41
17:55 1015 29.97 844 24.92 20.2 68.4 37 5.1 41.1
18:00 1015 29.97 844 24.92 20 68 38 5.2 41.4
18:05 1015 29.97 844 24.92 19.8 67.7 37 5.1 41.1
18:10 1015 29.97 845 24.95 19.7 67.5 38 5.1 41.2
18:15 1015 29.97 845 24.95 19.6 67.2 38 4.9 40.8
18:20 1015 29.97 845 24.95 19.4 67 38 4.8 40.7
18:25 1015 29.97 845 24.95 19.3 66.8 37 4.5 40.1
18:30 1015 29.97 845 24.95 19.3 66.8 37 4.4 39.8
18:35 1015 29.97 845 24.95 19.3 66.7 37 4.4 40
18:40 1015 29.97 845 24.95 19.2 66.5 37 4.2 39.6
18:45 1015 29.97 845 24.95 19.1 66.4 37 4.3 39.7
18:50 1015 29.97 845 24.95 19 66.1 37 4.1 39.4
18:55 1015 29.97 845 24.95 18.9 66.1 37 3.9 39.1
19:00 1015 29.97 845 24.95 19 66.2 36 3.7 38.7
19:05 1015 29.97 845 24.95 19.1 66.4 36 3.8 38.8
19:10 1015 29.97 845 24.95 19 66.2 36 3.8 38.8
19:15 1016 30 845 24.95 19 66.3 36 3.7 38.6
19:20 1016 30 845 24.95 19 66.2 36 3.7 38.7
19:25 1016 30 845 24.95 19 66.1 36 3.7 38.6
19:30 1016 30 845 24.95 19 66.2 36 3.8 38.8
19:35 1016 30 845 24.95 18.8 65.8 37 3.9 39
19:40 1016 30 845 24.95 18.7 65.7 37 3.8 38.8
19:45 1016 30 845 24.95 18.6 65.5 37 3.7 38.7
19:50 1016 30 845 24.95 18.6 65.6 36 3.4 38.1
19:55 1016 30 845 24.95 18.7 65.6 37 3.8 38.8
20:00 1016 30 845 24.95 18.5 65.2 37 3.7 38.6
20:05 1016 30 845 24.95 18.4 65.2 37 3.5 38.4
20:10 1016 30 845 24.95 18.5 65.3 36 3.5 38.2
20:15 1016 30 845 24.95 18.6 65.5 36 3.4 38.1
20:20 1016 30 845 24.95 18.6 65.5 36 3.2 37.8
20:25 1016 30 845 24.95 18.6 65.5 36 3.4 38.1
20:30 1016 30 845 24.95 18.4 65.2 37 3.5 38.3
20:35 1016 30 845 24.95 18.4 65.2 36 3.3 37.9
20:40 1016 30 845 24.95 18.6 65.4 36 3.2 37.8
20:45 1016 30 845 24.95 18.6 65.4 36 3.3 37.9
20:50 1016 30 845 24.95 18.4 65.1 36 3.4 38.1
20:55 1016 30 845 24.95 18.3 65 36 3.3 38
21:00 1016 30 845 24.95 18.3 65 36 3.3 37.9
21:05 1015 29.97 845 24.95 18.3 65 36 3.2 37.8
21:10 1016 30 845 24.95 18.5 65.2 36 3.1 37.6
21:15 1016 30 845 24.95 18.4 65.1 36 3.3 37.9
21:20 1016 30 845 24.95 18.3 64.9 36 3.2 37.8
21:25 1016 30 845 24.95 18.2 64.7 36 3.2 37.7
21:30 1016 30 845 24.95 18 64.4 37 3.1 37.6
21:35 1016 30 845 24.95 18 64.4 37 3.4 38.1
21:40 1016 30 845 24.95 18 64.5 37 3.4 38.1
21:45 1016 30 845 24.95 17.9 64.2 38 3.5 38.3
21:50 1016 30 845 24.95 17.5 63.4 39 3.4 38.1
21:55 1016 30 845 24.95 17.2 62.9 40 3.5 38.2
22:00 1016 30 845 24.95 17 62.6 40 3.4 38.1
22:05 1016 30 845 24.95 16.9 62.5 40 3.4 38.1
22:10 1016 30 845 24.95 16.8 62.2 41 3.6 38.5
22:15 1016 30 845 24.95 16.4 61.5 42 3.7 38.6
22:20 1016 30 845 24.95 16.1 61 43 3.7 38.7
22:25 1016 30 845 24.95 16 60.8 44 3.7 38.7
22:30 1016 30 845 24.95 15.8 60.5 45 4 39.2
22:35 1016 30 845 24.95 15.6 60 46 4.2 39.5
22:40 1016 30 845 24.95 15.7 60.2 46 4.1 39.4
22:45 1016 30 845 24.95 15.6 60.1 46 4.2 39.6
22:50 1016 30 846 24.98 15.6 60 47 4.4 39.9
22:55 1016 30 846 24.98 15.6 60 47 4.5 40
23:00 1016 30 846 24.98 15.5 59.9 46 4.1 39.4
23:05 1016 30 846 24.98 15.5 59.8 47 4.2 39.6
23:10 1016 30 846 24.98 15.3 59.5 48 4.3 39.7
23:15 1016 30 846 24.98 15.1 59.3 48 4.4 39.9
23:20 1016 30 846 24.98 15 59.1 49 4.4 39.9
23:25 1016 30 846 24.98 15 59.1 49 4.4 39.9
23:30 1017 30.03 846 24.98 14.9 58.9 49 4.5 40.1
23:35 1017 30.03 846 24.98 14.8 58.6 50 4.4 40
23:40 1017 30.03 846 24.98 14.8 58.7 50 4.5 40
23:45 1017 30.03 846 24.98 14.6 58.3 50 4.4 39.8
23:50 1017 30.03 846 24.98 14.4 58 50 4.3 39.8
23:55 1017 30.03 846 24.98 14.2 57.6 50 4 39.2
24:00 1017 30.03 846 24.98 14.4 57.9 50 4 39.3